Marble Rock, IA (50653)

11:54 PM CST on January 21, 2017 (GMT -0600)
Marble Rock 01 | | Change Station
Active Advisory: Dense Fog Advisory

Elev 1027 ft 42.97 °N, 92.87 °W | Updated 25 seconds ago

Overcast
Overcast
34.2 °F
Feels Like 34 °F
N
2.0
Wind Variable Wind from West

Today
High -- | Low -- °F
--% Chance of Precip.
Yesterday
High -- | Low -- °F
Precip. -- in
Pressure 29.56 in
Visibility 2.5 miles
Clouds Overcast 1800 ft
Windchill 34 °F
Dew Point 33 °F
Humidity 98%
Rainfall 0.00 in
Snow Depth Not available.
7:36 AM 5:10 PM
Waning Crescent, 29% visible
METAR KCCY 220555Z AUTO 22003KT 2 1/2SM BR OVC018 01/01 A2956 RMK AO2
Pressure 29.56 in
Visibility 2.5 miles
Clouds Overcast 1800 ft
Windchill 34 °F
Dew Point 33 °F
Humidity 98%
Rainfall 0.00 in
Snow Depth Not available.
7:36 AM 5:10 PM
Waning Crescent, 29% visible
METAR KCCY 220555Z AUTO 22003KT 2 1/2SM BR OVC018 01/01 A2956 RMK AO2

Get Your Daily Forecast Email!

Thanks for signing up!

Be on the lookout for a verification email in your inbox.

You'll start receiving the daily forecast at 8 AM.

×

10-Day Weather Forecast

Almanac

Astronomy

Jan. 21, 2017 Rise Set
Actual Time
Civil Twilight
Nautical Twilight
Astronomical Twilight
Moon
Length of Visible Light
Length of Day
Tomorrow will be .
, % of the Moon is Illuminated

Today's Extremes

State Highs State Lows

Community

WunderPhotos

Upload Photos

1,962,540 photos uploaded!

WunderBlog® & News

Nearby

Air Quality

  Air Quality AQ Index Pollutant
Not available.

Snow Depth

Station Depth Elevation

Earthquake Activity

City Distance Mag. Time & Date
Minimum magnitude displayed is 2.5.

Coastal Water Temperatures

Place Temperature

Stations

Nearby Weather Stations

Station Location Temp. Windchill Dew Point Humidity Wind Precip. Elev Updated Type
                   

Watches & Warnings

Dense Fog Advisory
Issued: 10:33 PM CST Jan. 21, 2017 – National Weather Service

... Dense fog advisory remains in effect until noon CST Sunday...

* periods of dense fog will continue through Sunday morning...
with visibility reduced to near zero at times.

* For locations where fog has temporarily lifted this evening...
look for redevelopment later tonight.

* Impacts... significantly reduced visibility at times impacting
travel.

Precautionary/preparedness actions...

A dense fog advisory means visibilities will frequently be
reduced to less than one quarter mile. If driving... slow down...
use your headlights... and leave plenty of distance ahead of you.